Terminal Aerodrome Forecast
Issued by NWS Wilmington, OH

Current Version | Previous Version | Text Only | Print | Product List | Glossary On
Versions: 1 2 3 4 5 6 7 8 9 10 11 12 13 14 15 16 17 18
000 FTUS41 KILN 230500 TAFILN TAF KILN 230520Z 2306/2406 08003KT P6SM SCT150 BKN200 FM231400 VRB03KT P6SM SCT150 FM232300 11004KT P6SM SCT100=

USA.gov is the U.S. government's official web portal to all federal, state and local government web resources and services.